Time;durP1;ratioP1;P1;durP2;ratioP2;P2;SDS_P1;SDS_P2;PMS_P1;PMS_P2;Temp;Humidity;BMP_temperature;BMP_pressure;BME280_temperature;BME280_humidity;BME280_pressure;Samples;Min_cycle;Max_cycle;Signal;HPM_P1;HPM_P2
2022/05/05 00:02:09;;;;;;;14.32;7.22;;;6.50;99.90;;;;;;5050055;28;20090;-80
2022/05/05 00:04:34;;;;;;;12.63;8.02;;;6.50;99.90;;;;;;5048513;28;20080;-80
2022/05/05 00:07:01;;;;;;;12.80;7.93;;;6.50;99.90;;;;;;5045469;28;20037;-79
2022/05/05 00:09:28;;;;;;;19.67;10.32;;;6.50;99.90;;;;;;5050519;28;20041;-79
2022/05/05 00:14:39;;;;;;;47.42;21.60;;;6.50;99.90;;;;;;5044263;28;20393;-79
2022/05/05 00:17:07;;;;;;;57.58;24.25;;;6.40;99.90;;;;;;5050798;28;20076;-80
2022/05/05 00:19:34;;;;;;;30.25;15.90;;;6.40;99.90;;;;;;5046164;28;20466;-80
2022/05/05 00:22:00;;;;;;;32.95;14.60;;;6.40;99.90;;;;;;5046171;28;20037;-80
2022/05/05 00:24:26;;;;;;;29.88;13.90;;;6.40;99.90;;;;;;5050588;28;20037;-80
2022/05/05 00:26:52;;;;;;;18.85;9.82;;;6.40;99.90;;;;;;5032676;28;20048;-79
2022/05/05 00:29:18;;;;;;;23.30;12.43;;;6.40;99.90;;;;;;5043942;28;20049;-79
2022/05/05 00:31:44;;;;;;;19.00;10.00;;;6.40;99.90;;;;;;5049607;28;20084;-80
2022/05/05 00:34:10;;;;;;;27.08;13.10;;;6.40;99.90;;;;;;5049299;28;20033;-80
2022/05/05 00:36:36;;;;;;;23.02;11.90;;;6.40;99.90;;;;;;5042849;28;20048;-80
2022/05/05 00:39:03;;;;;;;36.60;16.45;;;6.40;99.90;;;;;;5047463;28;20040;-80
2022/05/05 00:41:33;;;;;;;35.47;18.13;;;6.40;99.90;;;;;;5048822;28;20138;-79
2022/05/05 00:43:59;;;;;;;34.63;16.75;;;6.30;99.90;;;;;;5048290;28;20045;-80
2022/05/05 00:46:25;;;;;;;37.65;17.80;;;6.30;99.90;;;;;;5030448;28;20052;-80
2022/05/05 00:48:50;;;;;;;37.47;18.25;;;6.30;99.90;;;;;;5049886;28;20514;-79
2022/05/05 00:51:16;;;;;;;36.88;18.52;;;6.30;99.90;;;;;;5046079;28;20478;-80
2022/05/05 00:53:42;;;;;;;34.88;17.52;;;6.30;99.90;;;;;;5051377;28;20040;-80
2022/05/05 00:56:11;;;;;;;33.53;17.52;;;6.30;99.90;;;;;;5049468;28;20037;-79
2022/05/05 00:58:37;;;;;;;30.88;15.75;;;6.30;99.90;;;;;;5049595;28;20040;-79
2022/05/05 01:01:04;;;;;;;30.88;15.07;;;6.30;99.90;;;;;;5048153;28;20041;-79
2022/05/05 01:03:34;;;;;;;21.80;10.82;;;6.30;99.90;;;;;;5049280;28;20052;-79
2022/05/05 01:06:00;;;;;;;17.80;11.02;;;6.20;99.90;;;;;;5049259;28;20057;-79
2022/05/05 01:08:25;;;;;;;20.27;10.45;;;6.20;99.90;;;;;;5028334;28;20383;-79
2022/05/05 01:10:52;;;;;;;24.83;13.35;;;6.20;99.90;;;;;;5049931;28;20048;-79
2022/05/05 01:13:17;;;;;;;20.25;12.45;;;6.20;99.90;;;;;;5044615;28;20056;-79
2022/05/05 01:15:43;;;;;;;21.42;11.43;;;6.10;99.90;;;;;;5048287;28;20033;-79
2022/05/05 01:18:10;;;;;;;21.23;12.93;;;6.00;99.90;;;;;;5048418;28;20120;-80
2022/05/05 01:20:50;;;;;;;17.02;10.00;;;6.00;99.90;;;;;;5047978;28;20037;-80
2022/05/05 01:23:16;;;;;;;18.25;11.02;;;6.00;99.90;;;;;;5043422;28;20044;-79
2022/05/05 01:28:29;;;;;;;18.42;10.35;;;6.10;99.90;;;;;;5048830;28;20051;-79
2022/05/05 01:30:55;;;;;;;15.50;9.65;;;6.10;99.90;;;;;;5044340;28;20040;-80
2022/05/05 01:33:22;;;;;;;14.55;9.95;;;6.20;99.90;;;;;;5029611;28;20048;-79
2022/05/05 01:35:56;;;;;;;14.93;9.18;;;6.20;99.90;;;;;;5047144;28;20124;-80
2022/05/05 01:38:24;;;;;;;13.95;8.55;;;6.20;99.90;;;;;;5060764;28;20056;-79
2022/05/05 01:40:50;;;;;;;12.18;8.25;;;6.30;99.90;;;;;;5055819;28;20538;-80
2022/05/05 01:43:23;;;;;;;12.05;7.90;;;6.30;99.90;;;;;;5042322;28;20121;-80
2022/05/05 01:45:49;;;;;;;13.07;8.77;;;6.30;99.90;;;;;;5033933;28;20067;-79
2022/05/05 01:48:15;;;;;;;12.73;8.43;;;6.30;99.90;;;;;;5047048;28;20041;-80
2022/05/05 01:50:40;;;;;;;11.90;7.82;;;6.40;99.90;;;;;;5044733;28;20075;-80
2022/05/05 01:53:06;;;;;;;11.75;8.00;;;6.40;99.90;;;;;;5048813;28;20437;-79
2022/05/05 01:55:33;;;;;;;12.30;7.63;;;6.40;99.90;;;;;;5029462;28;20504;-80
2022/05/05 01:58:00;;;;;;;12.82;7.53;;;6.40;99.90;;;;;;5046314;28;20037;-80
2022/05/05 02:00:26;;;;;;;15.85;8.27;;;6.30;99.90;;;;;;5048663;28;20137;-80
2022/05/05 02:02:52;;;;;;;12.50;8.07;;;6.30;99.90;;;;;;5047636;28;20033;-80
2022/05/05 02:05:18;;;;;;;17.15;9.02;;;6.40;99.90;;;;;;5053411;28;20406;-80
2022/05/05 02:07:45;;;;;;;12.40;8.15;;;6.40;99.90;;;;;;5047000;28;20076;-80
2022/05/05 02:10:16;;;;;;;10.18;8.15;;;6.30;99.90;;;;;;5045694;28;20159;-79
2022/05/05 02:12:44;;;;;;;13.65;8.63;;;6.20;99.90;;;;;;5046811;28;20122;-80
2022/05/05 02:15:11;;;;;;;9.70;7.40;;;6.30;99.90;;;;;;5032098;28;20032;-80
2022/05/05 02:17:38;;;;;;;11.27;8.30;;;6.30;99.90;;;;;;5048600;28;20044;-80
2022/05/05 02:20:06;;;;;;;13.32;7.72;;;6.20;99.90;;;;;;5048475;28;20048;-80
2022/05/05 02:22:32;;;;;;;11.50;7.57;;;6.20;99.90;;;;;;5032794;28;20057;-80
2022/05/05 02:24:58;;;;;;;11.07;7.90;;;6.20;99.90;;;;;;5052321;28;20128;-80
2022/05/05 02:27:24;;;;;;;9.45;7.60;;;6.20;99.90;;;;;;5051390;28;20069;-80
2022/05/05 02:29:50;;;;;;;11.82;7.70;;;6.20;99.90;;;;;;5047360;28;20130;-80
2022/05/05 02:32:17;;;;;;;11.30;7.45;;;6.10;99.90;;;;;;5052302;28;20052;-80
2022/05/05 02:34:44;;;;;;;10.77;7.40;;;6.10;99.90;;;;;;5048309;28;20566;-80
2022/05/05 02:39:54;;;;;;;8.82;6.65;;;6.10;99.90;;;;;;5050521;28;20108;-80
2022/05/05 02:42:22;;;;;;;10.23;6.53;;;6.00;99.90;;;;;;5051969;28;20048;-80
2022/05/05 02:44:48;;;;;;;9.40;6.47;;;6.00;99.90;;;;;;5051029;28;20048;-80
2022/05/05 02:47:14;;;;;;;9.70;6.97;;;6.00;99.90;;;;;;5054337;28;21681;-80
2022/05/05 02:49:39;;;;;;;9.55;7.32;;;6.00;99.90;;;;;;5033031;28;20037;-80
2022/05/05 02:52:06;;;;;;;11.75;7.05;;;6.10;99.90;;;;;;5051518;28;20526;-79
2022/05/05 02:54:47;;;;;;;9.10;6.63;;;6.10;99.90;;;;;;5050618;28;20037;-80
2022/05/05 02:57:23;;;;;;;8.35;6.38;;;6.10;99.90;;;;;;5051021;28;20510;-80
2022/05/05 02:59:50;;;;;;;10.43;6.55;;;6.10;99.90;;;;;;5051484;28;20059;-80
2022/05/05 03:02:16;;;;;;;13.93;6.80;;;6.10;99.90;;;;;;5051078;28;20440;-80
2022/05/05 03:04:42;;;;;;;12.35;7.15;;;6.10;99.90;;;;;;5051741;28;20047;-80
2022/05/05 03:07:07;;;;;;;11.98;7.20;;;6.10;99.90;;;;;;5052907;28;20649;-80
2022/05/05 03:09:33;;;;;;;9.40;7.07;;;6.10;99.90;;;;;;5048825;28;20045;-80
2022/05/05 03:11:59;;;;;;;10.27;7.80;;;6.20;99.90;;;;;;5033622;28;20531;-80
2022/05/05 03:14:24;;;;;;;10.00;7.57;;;6.10;99.90;;;;;;5054325;28;20596;-80
2022/05/05 03:16:50;;;;;;;11.32;7.45;;;6.20;99.90;;;;;;5048281;28;20751;-80
2022/05/05 03:19:15;;;;;;;9.48;6.90;;;6.20;99.90;;;;;;5053055;28;20120;-80
2022/05/05 03:21:41;;;;;;;13.77;8.20;;;6.20;99.90;;;;;;5061941;28;20051;-80
2022/05/05 03:24:07;;;;;;;13.00;8.05;;;6.30;99.90;;;;;;5052320;28;20056;-80
2022/05/05 03:26:33;;;;;;;8.90;7.80;;;6.30;99.90;;;;;;5048849;28;20074;-80
2022/05/05 03:28:58;;;;;;;15.75;8.45;;;6.30;99.90;;;;;;5044089;28;20544;-80
2022/05/05 03:31:24;;;;;;;8.95;7.13;;;6.30;99.90;;;;;;5050435;28;20041;-79
2022/05/05 03:33:50;;;;;;;11.30;8.23;;;6.40;99.90;;;;;;5048763;28;20040;-80
2022/05/05 03:36:15;;;;;;;10.18;7.85;;;6.40;99.90;;;;;;5054736;28;20032;-80
2022/05/05 03:38:41;;;;;;;11.27;7.55;;;6.40;99.90;;;;;;5040364;28;20046;-80
2022/05/05 03:41:07;;;;;;;11.82;7.45;;;6.40;99.90;;;;;;5051217;28;20044;-80
2022/05/05 03:43:33;;;;;;;8.70;7.53;;;6.50;99.90;;;;;;5058229;28;20413;-80
2022/05/05 03:45:58;;;;;;;10.27;7.70;;;6.40;99.90;;;;;;5039862;28;20073;-80
2022/05/05 03:48:24;;;;;;;9.35;7.40;;;6.40;99.90;;;;;;5048064;28;20076;-80
2022/05/05 03:50:50;;;;;;;9.73;7.07;;;6.40;99.90;;;;;;5050644;28;20106;-80
2022/05/05 03:53:15;;;;;;;9.32;8.00;;;6.40;99.90;;;;;;5043756;28;20045;-80
2022/05/05 03:55:41;;;;;;;10.15;7.60;;;6.40;99.90;;;;;;5050005;28;20033;-80
2022/05/05 03:58:07;;;;;;;9.70;6.97;;;6.40;99.90;;;;;;5048369;28;20033;-80
2022/05/05 04:00:32;;;;;;;12.48;7.47;;;6.50;99.90;;;;;;5051363;28;20116;-80
2022/05/05 04:05:42;;;;;;;13.13;7.72;;;6.50;99.90;;;;;;5045641;28;20553;-80
2022/05/05 04:08:08;;;;;;;11.05;7.65;;;6.50;99.90;;;;;;5049173;28;20041;-80
2022/05/05 04:10:33;;;;;;;8.75;7.75;;;6.60;99.90;;;;;;5049043;28;20147;-80
2022/05/05 04:12:59;;;;;;;9.60;8.10;;;6.60;99.90;;;;;;5045983;28;20506;-80
2022/05/05 04:15:25;;;;;;;14.75;8.27;;;6.50;99.90;;;;;;5046546;28;20032;-80
2022/05/05 04:17:51;;;;;;;12.50;8.48;;;6.60;99.90;;;;;;5045650;28;20055;-80
2022/05/05 04:20:17;;;;;;;11.38;7.75;;;6.60;99.90;;;;;;5046173;28;20059;-80
2022/05/05 04:22:43;;;;;;;10.55;9.02;;;6.60;99.90;;;;;;5050290;28;20093;-80
2022/05/05 04:25:09;;;;;;;10.13;8.07;;;6.60;99.90;;;;;;5033868;28;20124;-79
2022/05/05 04:27:35;;;;;;;12.55;8.50;;;6.60;99.90;;;;;;5049921;28;20036;-80
2022/05/05 04:30:04;;;;;;;11.52;8.45;;;6.70;99.90;;;;;;5049553;28;20124;-80
2022/05/05 04:32:30;;;;;;;11.10;8.90;;;6.70;99.90;;;;;;5046797;28;20059;-80
2022/05/05 04:34:56;;;;;;;8.73;7.80;;;6.70;99.90;;;;;;5052369;28;20041;-80
2022/05/05 04:37:21;;;;;;;15.00;8.02;;;6.70;99.90;;;;;;5050998;28;20095;-80
2022/05/05 04:39:47;;;;;;;11.07;8.75;;;6.80;99.90;;;;;;5047738;28;20079;-80
2022/05/05 04:42:12;;;;;;;12.18;8.50;;;6.80;99.90;;;;;;5049795;28;20633;-80
2022/05/05 04:44:38;;;;;;;13.00;8.25;;;6.80;99.90;;;;;;5049505;28;20537;-80
2022/05/05 04:47:04;;;;;;;11.05;8.40;;;6.90;99.90;;;;;;5048814;28;20091;-80
2022/05/05 04:49:31;;;;;;;11.77;8.60;;;6.90;99.90;;;;;;5054025;28;20037;-80
2022/05/05 04:51:57;;;;;;;12.10;9.88;;;7.00;99.90;;;;;;5051128;28;20051;-80
2022/05/05 04:54:23;;;;;;;11.60;9.43;;;7.00;99.90;;;;;;5047979;28;20067;-80
2022/05/05 04:56:48;;;;;;;13.93;9.77;;;7.00;99.90;;;;;;5044525;28;20128;-80
2022/05/05 04:59:14;;;;;;;10.35;9.02;;;7.10;99.90;;;;;;5049812;28;20099;-80
2022/05/05 05:01:39;;;;;;;12.52;9.50;;;7.10;99.90;;;;;;5046921;28;20041;-80
2022/05/05 05:04:06;;;;;;;9.63;8.23;;;7.10;99.90;;;;;;5048571;28;20044;-80
2022/05/05 05:06:32;;;;;;;13.77;8.75;;;7.10;99.90;;;;;;5045344;28;20083;-80
2022/05/05 05:08:58;;;;;;;9.50;8.50;;;7.20;99.90;;;;;;5048305;28;20102;-80
2022/05/05 05:11:24;;;;;;;9.90;8.88;;;7.30;99.90;;;;;;5045160;28;20748;-80
2022/05/05 05:13:50;;;;;;;10.70;9.50;;;7.30;99.90;;;;;;5048036;28;20041;-80
2022/05/05 05:16:15;;;;;;;10.70;9.30;;;7.40;99.90;;;;;;5029305;28;20478;-80
2022/05/05 05:18:41;;;;;;;13.18;9.98;;;7.50;99.90;;;;;;5038084;28;20051;-80
2022/05/05 05:21:06;;;;;;;12.55;9.88;;;7.50;99.90;;;;;;5048556;28;20124;-80
2022/05/05 05:23:32;;;;;;;10.75;9.00;;;7.60;99.90;;;;;;5048720;28;20041;-80
2022/05/05 05:25:58;;;;;;;18.70;10.35;;;7.70;99.90;;;;;;5057433;28;20049;-80
2022/05/05 05:28:24;;;;;;;14.68;9.32;;;7.80;99.90;;;;;;5029225;28;20056;-80
2022/05/05 05:30:50;;;;;;;11.23;9.10;;;7.90;99.90;;;;;;5046477;28;20044;-80
2022/05/05 05:33:16;;;;;;;12.80;10.60;;;7.90;99.90;;;;;;5048109;28;20044;-80
2022/05/05 05:35:44;;;;;;;20.15;9.93;;;8.00;99.90;;;;;;5039872;28;20037;-80
2022/05/05 05:38:10;;;;;;;16.15;10.05;;;8.10;99.90;;;;;;5043280;28;20053;-81
2022/05/05 05:40:36;;;;;;;17.10;9.57;;;8.10;99.90;;;;;;5043711;28;20040;-80
2022/05/05 05:43:02;;;;;;;11.43;9.90;;;8.30;99.90;;;;;;5050055;28;20049;-80
2022/05/05 05:45:27;;;;;;;11.82;9.38;;;8.40;99.90;;;;;;5049049;28;20029;-80
2022/05/05 05:47:53;;;;;;;13.15;9.40;;;8.50;99.90;;;;;;5047921;28;20110;-80
2022/05/05 05:50:19;;;;;;;10.75;9.45;;;8.70;99.90;;;;;;5046344;28;20033;-80
2022/05/05 05:52:45;;;;;;;16.40;10.20;;;8.80;99.90;;;;;;5032165;28;20032;-80
2022/05/05 05:55:11;;;;;;;14.45;10.88;;;8.90;99.90;;;;;;5048568;28;20094;-80
2022/05/05 05:57:36;;;;;;;15.25;10.38;;;9.00;99.90;;;;;;5039247;28;20032;-81
2022/05/05 06:00:03;;;;;;;12.15;10.32;;;9.20;99.90;;;;;;5056466;28;20048;-80
2022/05/05 06:05:13;;;;;;;12.10;9.98;;;9.40;99.90;;;;;;5057171;28;20044;-80
2022/05/05 06:07:38;;;;;;;13.98;9.80;;;9.50;99.90;;;;;;5035884;28;20244;-80
2022/05/05 06:10:04;;;;;;;12.93;10.77;;;9.50;99.90;;;;;;5055753;28;20053;-80
2022/05/05 06:12:30;;;;;;;13.63;10.30;;;9.40;99.90;;;;;;5037473;28;20036;-81
2022/05/05 06:14:55;;;;;;;16.33;11.18;;;9.50;99.90;;;;;;5053716;28;20065;-80
2022/05/05 06:17:21;;;;;;;13.15;9.95;;;9.60;99.90;;;;;;5053944;28;20043;-81
2022/05/05 06:19:46;;;;;;;13.20;10.02;;;9.70;99.90;;;;;;5053676;28;20047;-81
2022/05/05 06:22:12;;;;;;;13.18;8.77;;;9.80;99.90;;;;;;5050853;28;20049;-81
2022/05/05 06:24:37;;;;;;;11.35;9.13;;;9.90;99.90;;;;;;5049163;28;20043;-81
2022/05/05 06:27:03;;;;;;;12.48;9.50;;;10.10;99.90;;;;;;5053743;28;20761;-81
2022/05/05 06:29:30;;;;;;;13.15;8.98;;;10.20;99.90;;;;;;5052747;28;20069;-80
2022/05/05 06:31:56;;;;;;;12.02;8.82;;;10.40;99.90;;;;;;5054691;28;20041;-81
2022/05/05 06:34:21;;;;;;;14.73;8.73;;;10.50;99.90;;;;;;5054324;28;20040;-81
2022/05/05 06:36:47;;;;;;;9.93;8.38;;;10.60;99.90;;;;;;5057609;28;20048;-82
2022/05/05 06:39:12;;;;;;;9.25;7.88;;;10.80;99.90;;;;;;5055702;28;20052;-82
2022/05/05 06:41:38;;;;;;;12.40;9.07;;;10.80;99.90;;;;;;5059218;28;20060;-81
2022/05/05 06:44:04;;;;;;;13.75;8.90;;;10.90;99.90;;;;;;5037014;28;20047;-81
2022/05/05 06:46:30;;;;;;;14.07;9.48;;;11.10;99.90;;;;;;5054216;28;20055;-81
2022/05/05 06:48:55;;;;;;;12.88;9.25;;;11.20;99.90;;;;;;5038418;28;20721;-82
2022/05/05 06:51:21;;;;;;;10.25;8.30;;;11.20;99.90;;;;;;5058904;28;20203;-81
2022/05/05 06:53:46;;;;;;;11.20;8.07;;;11.40;99.90;;;;;;5053559;28;20076;-81
2022/05/05 06:56:12;;;;;;;12.63;7.72;;;11.40;99.90;;;;;;5053406;28;20044;-80
2022/05/05 06:58:37;;;;;;;12.57;6.97;;;11.60;99.90;;;;;;5051862;28;20048;-80
2022/05/05 07:03:47;;;;;;;10.55;7.60;;;11.70;99.90;;;;;;5053449;28;20049;-81
2022/05/05 07:06:13;;;;;;;9.98;6.47;;;11.90;99.90;;;;;;5054775;28;20040;-82
2022/05/05 07:11:23;;;;;;;17.05;6.82;;;12.00;99.90;;;;;;5050201;28;20049;-82
2022/05/05 07:13:49;;;;;;;10.13;6.88;;;12.10;99.90;;;;;;5050647;28;20076;-83
2022/05/05 07:16:15;;;;;;;10.93;6.80;;;12.20;99.90;;;;;;5043311;28;20080;-83
2022/05/05 07:18:41;;;;;;;10.35;6.80;;;12.30;99.90;;;;;;5031008;28;20057;-83
2022/05/05 07:21:06;;;;;;;15.20;6.97;;;12.40;99.90;;;;;;5068019;28;20044;-83
2022/05/05 07:23:32;;;;;;;8.85;6.63;;;12.50;99.90;;;;;;5057839;28;20498;-83
2022/05/05 07:25:58;;;;;;;10.15;7.05;;;12.60;99.90;;;;;;5039638;28;20045;-83
2022/05/05 07:28:23;;;;;;;11.15;6.53;;;12.60;99.90;;;;;;5051937;28;20041;-83
2022/05/05 07:30:51;;;;;;;11.02;6.38;;;12.60;99.90;;;;;;5055370;28;20143;-83
2022/05/05 07:33:16;;;;;;;11.15;6.50;;;12.60;99.90;;;;;;5057272;28;20081;-83
2022/05/05 07:35:42;;;;;;;10.02;6.47;;;12.70;99.90;;;;;;5056304;28;20037;-82
2022/05/05 07:38:07;;;;;;;12.13;6.47;;;12.60;99.90;;;;;;5058123;28;20055;-83
2022/05/05 07:40:33;;;;;;;12.85;6.70;;;12.70;99.90;;;;;;5053174;28;20041;-83
2022/05/05 07:42:58;;;;;;;11.25;5.97;;;12.80;99.90;;;;;;5059505;28;20044;-84
2022/05/05 07:45:24;;;;;;;10.85;5.78;;;12.90;99.90;;;;;;5051435;28;20082;-85
2022/05/05 07:47:50;;;;;;;10.38;5.00;;;13.00;99.90;;;;;;5044424;28;20039;-85
2022/05/05 07:50:16;;;;;;;10.10;5.45;;;13.20;99.90;;;;;;5059998;28;20138;-85
2022/05/05 07:52:41;;;;;;;8.77;5.65;;;13.40;99.90;;;;;;5071972;22;20064;-83
2022/05/05 07:55:08;;;;;;;9.80;5.43;;;13.40;99.90;;;;;;5054716;28;20116;-83
2022/05/05 07:57:43;;;;;;;9.07;4.93;;;13.40;99.90;;;;;;5052913;28;20044;-84
2022/05/05 08:00:11;;;;;;;11.02;5.05;;;13.50;99.90;;;;;;5043243;28;20045;-84
2022/05/05 08:02:36;;;;;;;11.23;5.15;;;13.70;99.90;;;;;;5053865;28;20037;-83
2022/05/05 08:05:02;;;;;;;6.97;5.10;;;13.80;99.90;;;;;;5055579;28;20099;-82
2022/05/05 08:07:28;;;;;;;7.57;4.78;;;13.90;99.90;;;;;;5078864;28;20083;-83
2022/05/05 08:09:54;;;;;;;11.27;5.07;;;14.00;99.90;;;;;;5054211;28;20047;-83
2022/05/05 08:12:19;;;;;;;8.93;5.10;;;14.20;99.90;;;;;;5057977;28;20079;-83
2022/05/05 08:14:45;;;;;;;8.82;4.80;;;14.40;99.90;;;;;;5070732;28;20119;-83
2022/05/05 08:17:10;;;;;;;7.95;4.45;;;14.50;99.10;;;;;;5050878;28;20052;-84
2022/05/05 08:19:36;;;;;;;7.72;4.55;;;14.60;98.60;;;;;;5031943;28;20057;-83
2022/05/05 08:22:01;;;;;;;9.00;4.70;;;14.70;97.40;;;;;;5049884;28;20098;-84
2022/05/05 08:29:59;;;;;;;9.32;4.93;;;15.10;96.40;;;;;;5055506;28;20513;-83
2022/05/05 08:32:25;;;;;;;8.02;4.70;;;15.20;95.30;;;;;;5050144;28;20040;-84
2022/05/05 08:34:51;;;;;;;6.43;4.50;;;15.30;96.30;;;;;;5049650;28;20045;-83
2022/05/05 08:37:16;;;;;;;7.43;3.80;;;15.40;96.50;;;;;;5050176;28;20043;-84
2022/05/05 08:39:44;;;;;;;7.45;3.95;;;15.60;96.20;;;;;;5040671;28;20163;-84
2022/05/05 08:42:10;;;;;;;6.38;4.00;;;15.90;95.70;;;;;;5048154;28;20053;-84
2022/05/05 08:44:35;;;;;;;7.43;4.28;;;16.00;94.90;;;;;;5048114;28;20055;-84
2022/05/05 08:47:01;;;;;;;6.13;3.95;;;16.00;93.20;;;;;;5047384;28;20032;-84
2022/05/05 08:49:29;;;;;;;5.85;3.33;;;16.10;94.30;;;;;;5058805;28;20079;-84
2022/05/05 08:51:56;;;;;;;10.18;4.28;;;16.10;93.50;;;;;;5041711;28;20068;-84
2022/05/05 08:54:25;;;;;;;7.63;4.25;;;16.40;93.00;;;;;;5046432;28;20045;-84
2022/05/05 08:56:51;;;;;;;8.95;4.25;;;16.40;92.80;;;;;;5047282;28;20045;-83
2022/05/05 08:59:21;;;;;;;10.38;4.65;;;16.30;91.40;;;;;;5048183;28;20072;-84
2022/05/05 09:01:48;;;;;;;32.55;6.20;;;16.50;92.60;;;;;;5048530;28;20051;-83
2022/05/05 09:04:14;;;;;;;21.65;5.00;;;16.60;92.50;;;;;;5049043;28;20040;-83
2022/05/05 09:06:47;;;;;;;5.45;4.22;;;16.90;92.60;;;;;;5054688;28;20044;-83
2022/05/05 09:09:30;;;;;;;7.88;4.43;;;16.90;92.20;;;;;;5051163;28;20050;-83
2022/05/05 09:12:14;;;;;;;7.72;4.30;;;17.10;92.70;;;;;;5029647;28;20043;-83
2022/05/05 09:14:52;;;;;;;8.82;4.47;;;17.20;92.20;;;;;;5048143;28;20559;-81
2022/05/05 09:17:22;;;;;;;9.07;5.15;;;17.40;91.10;;;;;;5045909;28;20040;-83
2022/05/05 09:19:49;;;;;;;10.65;4.85;;;17.60;90.70;;;;;;5048793;28;20037;-83
2022/05/05 09:22:20;;;;;;;7.60;4.97;;;17.80;89.60;;;;;;5041425;28;20053;-83
2022/05/05 09:24:49;;;;;;;9.88;5.55;;;18.00;88.70;;;;;;5041363;28;20052;-82
2022/05/05 09:27:27;;;;;;;12.20;4.60;;;18.00;88.60;;;;;;5048491;28;20051;-80
2022/05/05 09:30:12;;;;;;;9.13;5.18;;;18.00;88.40;;;;;;5031880;28;20040;-80
2022/05/05 09:32:41;;;;;;;9.45;4.60;;;17.80;87.80;;;;;;5045620;28;20048;-82
2022/05/05 09:35:18;;;;;;;10.02;4.90;;;18.00;87.60;;;;;;5048396;28;20399;-81
2022/05/05 09:37:45;;;;;;;5.90;4.38;;;17.70;84.20;;;;;;5041224;28;20044;-81
2022/05/05 09:40:13;;;;;;;6.22;4.30;;;17.80;88.30;;;;;;5042420;28;20475;-78
2022/05/05 09:42:44;;;;;;;7.38;4.30;;;18.20;88.40;;;;;;5064483;28;20219;-78
2022/05/05 09:45:17;;;;;;;7.57;4.35;;;18.50;85.40;;;;;;5046405;28;20048;-78
2022/05/05 09:48:01;;;;;;;7.28;5.05;;;18.60;84.60;;;;;;5047266;28;20045;-78
2022/05/05 09:50:29;;;;;;;5.97;4.45;;;18.50;81.40;;;;;;5048205;28;20049;-78
2022/05/05 09:58:35;;;;;;;8.38;4.65;;;18.50;84.80;;;;;;5042613;28;20049;-77
2022/05/05 10:01:08;;;;;;;7.75;4.50;;;18.70;82.80;;;;;;5047883;28;20685;-77
2022/05/05 10:04:02;;;;;;;10.43;4.00;;;18.30;82.40;;;;;;5044306;28;20616;-75
2022/05/05 10:06:40;;;;;;;6.57;4.40;;;18.60;85.20;;;;;;5051701;28;20493;-78
2022/05/05 10:09:07;;;;;;;8.88;5.03;;;18.80;84.80;;;;;;5060307;28;20048;-77
2022/05/05 10:11:34;;;;;;;10.38;4.40;;;18.80;80.10;;;;;;5040773;28;20060;-78
2022/05/05 10:14:04;;;;;;;7.38;4.13;;;19.00;80.80;;;;;;5049316;28;20037;-78
2022/05/05 10:16:31;;;;;;;7.60;4.32;;;19.20;81.20;;;;;;5047324;28;20043;-78
2022/05/05 10:18:57;;;;;;;6.80;4.93;;;19.30;79.80;;;;;;5058752;28;20029;-78
2022/05/05 10:21:49;;;;;;;9.02;4.60;;;19.40;80.00;;;;;;5048158;28;20045;-77
2022/05/05 10:24:27;;;;;;;5.85;4.53;;;19.50;79.40;;;;;;5065745;28;20047;-78
2022/05/05 10:26:54;;;;;;;6.32;4.47;;;19.00;78.20;;;;;;5048916;28;20482;-77
2022/05/05 10:29:39;;;;;;;6.30;4.13;;;19.30;78.00;;;;;;5047308;28;20041;-77
2022/05/05 10:32:09;;;;;;;5.97;4.13;;;19.50;80.40;;;;;;5047236;28;20124;-78
2022/05/05 10:34:37;;;;;;;7.93;4.40;;;19.70;80.30;;;;;;5036167;28;20397;-78
2022/05/05 10:37:11;;;;;;;7.47;4.35;;;20.00;78.10;;;;;;5049891;28;20056;-78
2022/05/05 10:39:48;;;;;;;6.22;4.95;;;20.10;78.60;;;;;;5049336;28;20115;-78
2022/05/05 10:42:33;;;;;;;8.60;4.55;;;20.20;76.70;;;;;;5045866;28;20114;-78
2022/05/05 10:45:03;;;;;;;6.72;4.35;;;20.20;74.90;;;;;;5052327;28;20068;-78
2022/05/05 10:47:55;;;;;;;6.15;4.20;;;20.20;73.90;;;;;;5052191;28;20053;-77
2022/05/05 10:50:52;;;;;;;9.15;4.47;;;19.90;74.80;;;;;;5051936;28;20052;-78
2022/05/05 10:53:47;;;;;;;8.38;4.40;;;20.20;76.00;;;;;;5051655;28;20081;-78
2022/05/05 10:56:30;;;;;;;6.18;4.10;;;20.30;75.50;;;;;;5042073;28;20064;-78
2022/05/05 10:59:01;;;;;;;6.95;4.20;;;20.40;74.30;;;;;;5047086;28;20068;-78
2022/05/05 11:01:30;;;;;;;5.35;4.13;;;20.40;74.20;;;;;;5050883;28;20095;-78
2022/05/05 11:04:07;;;;;;;5.05;3.75;;;20.60;72.60;;;;;;5052035;28;20049;-78
2022/05/05 11:06:34;;;;;;;5.03;3.70;;;20.70;72.30;;;;;;5042806;28;20105;-78
2022/05/05 11:09:00;;;;;;;7.05;4.25;;;;;;;;;;5051758;28;20592;-78
2022/05/05 11:11:58;;;;;;;5.97;4.43;;;20.80;68.80;;;;;;5035304;28;20045;-78
2022/05/05 11:23:00;;;;;;;4.32;3.38;;;19.20;69.10;;;;;;5049996;28;20049;-78
2022/05/05 11:25:26;;;;;;;6.75;4.38;;;19.80;71.70;;;;;;5051524;28;20060;-78
2022/05/05 11:27:56;;;;;;;5.70;4.35;;;20.20;69.60;;;;;;5051295;28;20482;-78
2022/05/05 11:30:22;;;;;;;5.93;4.05;;;20.20;69.90;;;;;;5052501;28;20056;-78
2022/05/05 11:32:48;;;;;;;5.00;3.85;;;20.40;68.20;;;;;;5050129;28;20094;-77
2022/05/05 11:35:21;;;;;;;7.05;3.90;;;20.50;69.10;;;;;;5054379;28;20033;-78
2022/05/05 11:37:47;;;;;;;5.82;4.82;;;20.30;68.80;;;;;;5050593;28;20094;-78
2022/05/05 11:40:13;;;;;;;7.28;5.07;;;20.50;68.70;;;;;;5051540;28;20110;-77
2022/05/05 11:45:34;;;;;;;6.50;4.75;;;20.70;68.70;;;;;;5050762;28;20053;-78
2022/05/05 11:48:14;;;;;;;6.70;5.00;;;20.70;69.60;;;;;;5051509;28;20060;-78
2022/05/05 11:50:46;;;;;;;7.30;4.97;;;20.70;70.00;;;;;;5051189;28;20049;-78
2022/05/05 11:53:17;;;;;;;7.68;4.82;;;20.80;69.50;;;;;;5050353;28;20079;-78
2022/05/05 11:55:45;;;;;;;6.35;5.30;;;20.20;67.50;;;;;;5050820;28;20115;-77
2022/05/05 12:01:36;;;;;;;7.40;5.80;;;20.20;69.20;;;;;;5051152;28;20470;-77
2022/05/05 12:04:02;;;;;;;6.88;5.47;;;20.80;66.90;;;;;;5047442;28;20103;-72
2022/05/05 12:06:29;;;;;;;5.60;5.00;;;20.80;66.10;;;;;;5028568;28;20055;-72
2022/05/05 12:08:59;;;;;;;9.07;6.40;;;21.00;67.10;;;;;;5049944;28;20110;-72
2022/05/05 12:11:28;;;;;;;10.05;6.85;;;21.00;66.90;;;;;;5049702;28;20657;-72
2022/05/05 12:14:00;;;;;;;5.53;4.97;;;20.90;65.10;;;;;;5050102;28;20056;-72
2022/05/05 12:16:34;;;;;;;13.35;6.80;;;20.60;66.30;;;;;;5048749;28;20132;-72
2022/05/05 12:19:00;;;;;;;8.35;6.47;;;20.80;67.80;;;;;;5046222;28;20095;-72
2022/05/05 12:21:26;;;;;;;7.13;6.25;;;20.60;67.20;;;;;;5043597;28;20041;-72
2022/05/05 12:24:00;;;;;;;8.00;6.28;;;20.80;67.50;;;;;;5042026;28;20136;-72
2022/05/05 12:26:38;;;;;;;7.85;7.00;;;20.80;65.40;;;;;;5052950;28;20053;-72
2022/05/05 12:29:13;;;;;;;6.95;5.43;;;20.30;65.20;;;;;;5017099;28;20044;-72
2022/05/05 12:31:51;;;;;;;7.13;6.22;;;20.70;68.30;;;;;;5046274;28;20069;-72
2022/05/05 12:34:25;;;;;;;10.35;7.07;;;20.90;67.60;;;;;;5022875;28;20128;-72
2022/05/05 12:37:06;;;;;;;8.35;6.22;;;20.60;65.20;;;;;;5042143;28;20049;-72
2022/05/05 12:39:31;;;;;;;7.45;6.20;;;20.70;63.30;;;;;;5042897;28;20144;-72
2022/05/05 12:41:57;;;;;;;7.68;6.20;;;20.80;65.50;;;;;;5047393;28;20140;-72
2022/05/05 12:44:28;;;;;;;6.65;5.35;;;20.90;65.70;;;;;;5049178;28;20041;-72
2022/05/05 12:47:02;;;;;;;8.30;5.68;;;20.90;65.30;;;;;;5049498;28;20654;-72
2022/05/05 12:49:40;;;;;;;8.02;5.57;;;21.20;65.50;;;;;;5049293;28;20051;-72
2022/05/05 12:59:36;;;;;;;7.70;6.22;;;21.00;64.60;;;;;;5041701;28;20064;-72
2022/05/05 13:00:23;;;;;;;8.10;6.90;;;20.60;67.40;;;;;;5046407;28;20044;-72
2022/05/05 13:02:49;;;;;;;9.98;6.35;;;20.30;67.70;;;;;;5048558;28;20049;-72
2022/05/05 13:05:15;;;;;;;10.45;7.22;;;20.20;67.20;;;;;;5044341;28;20131;-72
2022/05/05 13:07:40;;;;;;;6.68;6.07;;;20.20;68.00;;;;;;5048931;28;20489;-72
2022/05/05 13:10:07;;;;;;;9.93;7.07;;;20.40;68.00;;;;;;5049133;28;20118;-72
2022/05/05 13:12:32;;;;;;;9.85;6.72;;;20.10;68.00;;;;;;5047113;28;20673;-72
2022/05/05 13:14:58;;;;;;;7.90;5.90;;;20.10;68.50;;;;;;5047302;28;20076;-72
2022/05/05 13:17:23;;;;;;;7.00;6.03;;;20.30;70.30;;;;;;5045482;28;20034;-72
2022/05/05 13:19:49;;;;;;;9.13;5.95;;;20.50;69.70;;;;;;5031624;28;20410;-72
2022/05/05 13:22:14;;;;;;;6.55;4.75;;;20.50;70.20;;;;;;5044065;28;20156;-72
2022/05/05 13:24:40;;;;;;;7.28;5.00;;;20.50;67.50;;;;;;5043222;28;20070;-72
2022/05/05 13:27:05;;;;;;;5.40;4.60;;;20.90;68.00;;;;;;5044753;28;20053;-72
2022/05/05 13:29:31;;;;;;;6.13;5.53;;;21.10;67.70;;;;;;5048198;28;20048;-72
2022/05/05 13:31:57;;;;;;;7.53;5.75;;;21.20;67.80;;;;;;5047884;28;20477;-72
2022/05/05 13:34:24;;;;;;;8.93;5.15;;;21.30;67.50;;;;;;5045665;28;20417;-72
2022/05/05 13:36:50;;;;;;;5.93;4.47;;;21.40;66.40;;;;;;5031715;28;20041;-72
2022/05/05 13:39:15;;;;;;;5.05;4.50;;;21.40;66.80;;;;;;5042765;28;20083;-72
2022/05/05 13:41:41;;;;;;;5.50;4.43;;;21.40;65.90;;;;;;5046864;28;20045;-72